Olivia, Texas
Current Conditions -  °F | °C
As of 4:55 AM on Thursday 23 Oct 2014 (Local Time) from KPKV Reporting Station
Clear Clear  
Wind Chill: 64°   Ceiling: Unl
Heat Index: 64°   Visibility: 10mi
Dew Point: 61°   Wind: 6mph
Humidity: 89%   Direction: 10°N
Pressure: 30.05"   Gusts: NA
Location:  28.5342°N, 96.663°W
Report Text: KPKV 230955Z AUTO 01005KT 10SM CLR 18/16 A3005 RMK AO2 T01800162
Loading
Personal Weather Stations






























Interactive Weather Map New forecast layout! Learn more

10-Day Weather Forecast

Advertisements
Track Severe Weather on mobile